Аэропорт: им. Гейдара Алиева. Баку

ICAO: UBBB

METAR:
2018/05/20 19:30
UBBB 201930Z 15006KT CAVOK 18/15 Q1014 R88/CLRD// NOSIG
METAR:
2018/05/20 18:12
TAF TAF UBBB 201710Z 2018/2118 18008KT CAVOK TX29/2111Z TN15/2102Z 
      TEMPO 2018/2023 VRB04KT 
      TEMPO 2023/2103 2000 BR FEW003 
      BECMG 2105/2107 16010KT 
      TEMPO 2107/2115 13008KT FEW050 BKN070